sensor_id;sensor_type;location;lat;lon;timestamp;temperature;humidity
43679;DHT22;29279;50.858;4.392;2023-07-13T00:02:15;17.10;99.90
43679;DHT22;29279;50.858;4.392;2023-07-13T00:04:41;17.10;99.90
43679;DHT22;29279;50.858;4.392;2023-07-13T00:07:07;17.00;99.90
43679;DHT22;29279;50.858;4.392;2023-07-13T00:09:33;17.10;99.90
43679;DHT22;29279;50.858;4.392;2023-07-13T00:11:59;17.10;99.90
43679;DHT22;29279;50.858;4.392;2023-07-13T00:14:26;17.10;99.90
43679;DHT22;29279;50.858;4.392;2023-07-13T00:16:53;17.00;99.90
43679;DHT22;29279;50.858;4.392;2023-07-13T00:19:19;17.00;99.90
43679;DHT22;29279;50.858;4.392;2023-07-13T00:21:45;16.90;99.90
43679;DHT22;29279;50.858;4.392;2023-07-13T00:24:14;17.00;99.90
43679;DHT22;29279;50.858;4.392;2023-07-13T00:26:42;16.90;99.90
43679;DHT22;29279;50.858;4.392;2023-07-13T00:29:11;16.90;99.90
43679;DHT22;29279;50.858;4.392;2023-07-13T00:31:37;16.90;99.90
43679;DHT22;29279;50.858;4.392;2023-07-13T00:34:03;16.90;99.90
43679;DHT22;29279;50.858;4.392;2023-07-13T00:36:30;16.90;99.90
43679;DHT22;29279;50.858;4.392;2023-07-13T00:38:56;16.90;99.90
43679;DHT22;29279;50.858;4.392;2023-07-13T00:41:22;16.90;99.90
43679;DHT22;29279;50.858;4.392;2023-07-13T00:43:47;16.90;99.90
43679;DHT22;29279;50.858;4.392;2023-07-13T00:46:21;16.80;99.90
43679;DHT22;29279;50.858;4.392;2023-07-13T00:48:48;16.80;99.90
43679;DHT22;29279;50.858;4.392;2023-07-13T00:51:20;16.80;99.90
43679;DHT22;29279;50.858;4.392;2023-07-13T00:53:47;16.70;99.90
43679;DHT22;29279;50.858;4.392;2023-07-13T00:56:13;16.60;99.90
43679;DHT22;29279;50.858;4.392;2023-07-13T00:58:39;16.70;99.90
43679;DHT22;29279;50.858;4.392;2023-07-13T01:01:05;16.70;99.90
43679;DHT22;29279;50.858;4.392;2023-07-13T01:03:30;16.70;99.90
43679;DHT22;29279;50.858;4.392;2023-07-13T01:05:56;16.70;99.90
43679;DHT22;29279;50.858;4.392;2023-07-13T01:08:22;16.80;99.90
43679;DHT22;29279;50.858;4.392;2023-07-13T01:10:53;16.80;99.90
43679;DHT22;29279;50.858;4.392;2023-07-13T01:13:18;16.80;99.90
43679;DHT22;29279;50.858;4.392;2023-07-13T01:15:49;16.70;99.90
43679;DHT22;29279;50.858;4.392;2023-07-13T01:18:22;16.70;99.90
43679;DHT22;29279;50.858;4.392;2023-07-13T01:23:20;16.50;99.90
43679;DHT22;29279;50.858;4.392;2023-07-13T01:25:46;16.40;99.90
43679;DHT22;29279;50.858;4.392;2023-07-13T01:28:12;16.50;99.90
43679;DHT22;29279;50.858;4.392;2023-07-13T01:30:39;16.70;99.90
43679;DHT22;29279;50.858;4.392;2023-07-13T01:33:09;16.50;99.90
43679;DHT22;29279;50.858;4.392;2023-07-13T01:35:35;16.50;99.90
43679;DHT22;29279;50.858;4.392;2023-07-13T01:38:01;16.50;99.90
43679;DHT22;29279;50.858;4.392;2023-07-13T01:40:28;16.50;99.90
43679;DHT22;29279;50.858;4.392;2023-07-13T01:42:54;16.60;99.90
43679;DHT22;29279;50.858;4.392;2023-07-13T01:45:19;16.50;99.90
43679;DHT22;29279;50.858;4.392;2023-07-13T01:47:45;16.50;99.90
43679;DHT22;29279;50.858;4.392;2023-07-13T01:50:11;16.70;99.90
43679;DHT22;29279;50.858;4.392;2023-07-13T01:52:36;16.70;99.90
43679;DHT22;29279;50.858;4.392;2023-07-13T01:55:02;16.60;99.90
43679;DHT22;29279;50.858;4.392;2023-07-13T01:57:28;16.60;99.90
43679;DHT22;29279;50.858;4.392;2023-07-13T01:59:54;16.70;99.90
43679;DHT22;29279;50.858;4.392;2023-07-13T02:02:20;16.60;99.90
43679;DHT22;29279;50.858;4.392;2023-07-13T02:04:45;16.50;99.90
43679;DHT22;29279;50.858;4.392;2023-07-13T02:07:11;16.50;99.90
43679;DHT22;29279;50.858;4.392;2023-07-13T02:09:37;16.40;99.90
43679;DHT22;29279;50.858;4.392;2023-07-13T02:12:03;16.40;99.90
43679;DHT22;29279;50.858;4.392;2023-07-13T02:14:28;16.40;99.90
43679;DHT22;29279;50.858;4.392;2023-07-13T02:16:54;16.40;99.90
43679;DHT22;29279;50.858;4.392;2023-07-13T02:19:20;16.50;99.90
43679;DHT22;29279;50.858;4.392;2023-07-13T02:21:46;16.50;99.90
43679;DHT22;29279;50.858;4.392;2023-07-13T02:24:11;16.50;99.90
43679;DHT22;29279;50.858;4.392;2023-07-13T02:26:43;16.40;99.90
43679;DHT22;29279;50.858;4.392;2023-07-13T02:29:09;16.30;99.90
43679;DHT22;29279;50.858;4.392;2023-07-13T02:31:35;16.30;99.90
43679;DHT22;29279;50.858;4.392;2023-07-13T02:34:01;16.30;99.90
43679;DHT22;29279;50.858;4.392;2023-07-13T02:36:28;16.30;99.90
43679;DHT22;29279;50.858;4.392;2023-07-13T02:38:53;16.30;99.90
43679;DHT22;29279;50.858;4.392;2023-07-13T02:41:19;16.30;99.90
43679;DHT22;29279;50.858;4.392;2023-07-13T02:43:45;16.20;99.90
43679;DHT22;29279;50.858;4.392;2023-07-13T02:46:10;16.30;99.90
43679;DHT22;29279;50.858;4.392;2023-07-13T02:48:37;16.30;99.90
43679;DHT22;29279;50.858;4.392;2023-07-13T02:51:03;16.40;99.90
43679;DHT22;29279;50.858;4.392;2023-07-13T02:53:29;16.40;99.90
43679;DHT22;29279;50.858;4.392;2023-07-13T02:55:55;16.30;99.90
43679;DHT22;29279;50.858;4.392;2023-07-13T02:58:21;16.20;99.90
43679;DHT22;29279;50.858;4.392;2023-07-13T03:00:48;16.20;99.90
43679;DHT22;29279;50.858;4.392;2023-07-13T03:03:16;16.10;99.90
43679;DHT22;29279;50.858;4.392;2023-07-13T03:05:43;16.00;99.90
43679;DHT22;29279;50.858;4.392;2023-07-13T03:08:11;15.90;99.90
43679;DHT22;29279;50.858;4.392;2023-07-13T03:10:37;15.90;99.90
43679;DHT22;29279;50.858;4.392;2023-07-13T03:13:03;16.00;99.90
43679;DHT22;29279;50.858;4.392;2023-07-13T03:15:29;16.00;99.90
43679;DHT22;29279;50.858;4.392;2023-07-13T03:17:55;15.90;99.90
43679;DHT22;29279;50.858;4.392;2023-07-13T03:20:20;15.90;99.90
43679;DHT22;29279;50.858;4.392;2023-07-13T03:22:46;15.90;99.90
43679;DHT22;29279;50.858;4.392;2023-07-13T03:25:12;15.90;99.90
43679;DHT22;29279;50.858;4.392;2023-07-13T03:27:38;15.90;99.90
43679;DHT22;29279;50.858;4.392;2023-07-13T03:30:05;15.90;99.90
43679;DHT22;29279;50.858;4.392;2023-07-13T03:32:31;16.00;99.90
43679;DHT22;29279;50.858;4.392;2023-07-13T03:34:56;15.90;99.90
43679;DHT22;29279;50.858;4.392;2023-07-13T03:37:25;16.10;99.90
43679;DHT22;29279;50.858;4.392;2023-07-13T03:39:51;16.10;99.90
43679;DHT22;29279;50.858;4.392;2023-07-13T03:42:16;16.00;99.90
43679;DHT22;29279;50.858;4.392;2023-07-13T03:44:42;16.10;99.90
43679;DHT22;29279;50.858;4.392;2023-07-13T03:47:11;16.10;99.90
43679;DHT22;29279;50.858;4.392;2023-07-13T03:49:37;16.10;99.90
43679;DHT22;29279;50.858;4.392;2023-07-13T03:52:03;16.20;99.90
43679;DHT22;29279;50.858;4.392;2023-07-13T03:54:29;16.20;99.90
43679;DHT22;29279;50.858;4.392;2023-07-13T03:56:55;16.10;99.90
43679;DHT22;29279;50.858;4.392;2023-07-13T03:59:20;16.10;99.90
43679;DHT22;29279;50.858;4.392;2023-07-13T04:01:46;16.10;99.90
43679;DHT22;29279;50.858;4.392;2023-07-13T04:04:12;16.20;99.90
43679;DHT22;29279;50.858;4.392;2023-07-13T04:06:38;16.10;99.90
43679;DHT22;29279;50.858;4.392;2023-07-13T04:09:04;16.20;99.90
43679;DHT22;29279;50.858;4.392;2023-07-13T04:11:34;16.20;99.90
43679;DHT22;29279;50.858;4.392;2023-07-13T04:14:01;16.20;99.90
43679;DHT22;29279;50.858;4.392;2023-07-13T04:16:27;16.30;99.90
43679;DHT22;29279;50.858;4.392;2023-07-13T04:18:53;16.30;99.90
43679;DHT22;29279;50.858;4.392;2023-07-13T04:21:20;16.30;99.90
43679;DHT22;29279;50.858;4.392;2023-07-13T04:23:46;16.40;99.90
43679;DHT22;29279;50.858;4.392;2023-07-13T04:26:12;16.40;99.90
43679;DHT22;29279;50.858;4.392;2023-07-13T04:28:37;16.40;99.90
43679;DHT22;29279;50.858;4.392;2023-07-13T04:31:03;16.40;99.90
43679;DHT22;29279;50.858;4.392;2023-07-13T04:33:29;16.40;99.90
43679;DHT22;29279;50.858;4.392;2023-07-13T04:35:55;16.40;99.90
43679;DHT22;29279;50.858;4.392;2023-07-13T04:38:26;16.40;99.90
43679;DHT22;29279;50.858;4.392;2023-07-13T04:40:59;16.40;99.90
43679;DHT22;29279;50.858;4.392;2023-07-13T04:43:25;16.30;99.90
43679;DHT22;29279;50.858;4.392;2023-07-13T04:45:52;16.30;99.90
43679;DHT22;29279;50.858;4.392;2023-07-13T04:48:18;16.30;99.90
43679;DHT22;29279;50.858;4.392;2023-07-13T04:50:45;16.30;99.90
43679;DHT22;29279;50.858;4.392;2023-07-13T04:53:11;16.30;99.90
43679;DHT22;29279;50.858;4.392;2023-07-13T04:55:37;16.30;99.90
43679;DHT22;29279;50.858;4.392;2023-07-13T04:58:04;16.40;99.90
43679;DHT22;29279;50.858;4.392;2023-07-13T05:00:30;16.50;99.90
43679;DHT22;29279;50.858;4.392;2023-07-13T05:02:57;16.50;99.90
43679;DHT22;29279;50.858;4.392;2023-07-13T05:05:24;16.50;99.90
43679;DHT22;29279;50.858;4.392;2023-07-13T05:07:51;16.50;99.90
43679;DHT22;29279;50.858;4.392;2023-07-13T05:10:16;16.50;99.90
43679;DHT22;29279;50.858;4.392;2023-07-13T05:12:42;16.50;99.90
43679;DHT22;29279;50.858;4.392;2023-07-13T05:15:09;16.50;99.90
43679;DHT22;29279;50.858;4.392;2023-07-13T05:17:34;16.50;99.90
43679;DHT22;29279;50.858;4.392;2023-07-13T05:20:00;16.60;99.90
43679;DHT22;29279;50.858;4.392;2023-07-13T05:22:26;16.60;99.90
43679;DHT22;29279;50.858;4.392;2023-07-13T05:24:51;16.60;99.90
43679;DHT22;29279;50.858;4.392;2023-07-13T05:27:17;16.60;99.90
43679;DHT22;29279;50.858;4.392;2023-07-13T05:29:43;16.50;99.90
43679;DHT22;29279;50.858;4.392;2023-07-13T05:32:09;16.60;99.90
43679;DHT22;29279;50.858;4.392;2023-07-13T05:34:34;16.80;99.90
43679;DHT22;29279;50.858;4.392;2023-07-13T05:37:00;16.80;99.90
43679;DHT22;29279;50.858;4.392;2023-07-13T05:39:26;17.00;99.90
43679;DHT22;29279;50.858;4.392;2023-07-13T05:41:53;17.00;99.90
43679;DHT22;29279;50.858;4.392;2023-07-13T05:44:18;16.90;99.90
43679;DHT22;29279;50.858;4.392;2023-07-13T05:46:44;16.90;99.90
43679;DHT22;29279;50.858;4.392;2023-07-13T05:49:10;17.00;99.90
43679;DHT22;29279;50.858;4.392;2023-07-13T05:51:36;16.90;99.90
43679;DHT22;29279;50.858;4.392;2023-07-13T05:54:02;16.90;99.90
43679;DHT22;29279;50.858;4.392;2023-07-13T05:56:27;16.90;99.90
43679;DHT22;29279;50.858;4.392;2023-07-13T05:58:53;17.00;99.90
43679;DHT22;29279;50.858;4.392;2023-07-13T06:01:19;17.00;99.90
43679;DHT22;29279;50.858;4.392;2023-07-13T06:03:46;17.10;99.90
43679;DHT22;29279;50.858;4.392;2023-07-13T06:06:12;17.20;99.90
43679;DHT22;29279;50.858;4.392;2023-07-13T06:08:39;17.20;99.90
43679;DHT22;29279;50.858;4.392;2023-07-13T06:11:17;17.30;99.90
43679;DHT22;29279;50.858;4.392;2023-07-13T06:13:43;17.30;99.90
43679;DHT22;29279;50.858;4.392;2023-07-13T06:16:09;17.30;99.90
43679;DHT22;29279;50.858;4.392;2023-07-13T06:18:36;17.20;99.90
43679;DHT22;29279;50.858;4.392;2023-07-13T06:21:16;17.20;99.90
43679;DHT22;29279;50.858;4.392;2023-07-13T06:23:42;17.30;99.90
43679;DHT22;29279;50.858;4.392;2023-07-13T06:26:08;17.30;99.90
43679;DHT22;29279;50.858;4.392;2023-07-13T06:28:35;17.20;99.90
43679;DHT22;29279;50.858;4.392;2023-07-13T06:31:01;17.30;99.90
43679;DHT22;29279;50.858;4.392;2023-07-13T06:33:27;17.50;99.90
43679;DHT22;29279;50.858;4.392;2023-07-13T06:35:53;17.50;99.90
43679;DHT22;29279;50.858;4.392;2023-07-13T06:38:20;17.40;99.90
43679;DHT22;29279;50.858;4.392;2023-07-13T06:40:46;17.50;99.90
43679;DHT22;29279;50.858;4.392;2023-07-13T06:43:12;17.60;99.90
43679;DHT22;29279;50.858;4.392;2023-07-13T06:45:45;17.70;99.90
43679;DHT22;29279;50.858;4.392;2023-07-13T06:48:13;17.90;99.90
43679;DHT22;29279;50.858;4.392;2023-07-13T06:50:39;18.10;99.90
43679;DHT22;29279;50.858;4.392;2023-07-13T06:53:04;18.10;99.90
43679;DHT22;29279;50.858;4.392;2023-07-13T06:55:30;18.20;99.90
43679;DHT22;29279;50.858;4.392;2023-07-13T06:57:56;18.30;99.90
43679;DHT22;29279;50.858;4.392;2023-07-13T07:00:21;18.40;99.90
43679;DHT22;29279;50.858;4.392;2023-07-13T07:02:47;18.50;99.90
43679;DHT22;29279;50.858;4.392;2023-07-13T07:05:13;18.40;99.90
43679;DHT22;29279;50.858;4.392;2023-07-13T07:07:38;18.50;99.90
43679;DHT22;29279;50.858;4.392;2023-07-13T07:10:04;18.50;99.90
43679;DHT22;29279;50.858;4.392;2023-07-13T07:12:30;18.60;99.90
43679;DHT22;29279;50.858;4.392;2023-07-13T07:14:57;18.50;99.90
43679;DHT22;29279;50.858;4.392;2023-07-13T07:17:22;18.70;99.90
43679;DHT22;29279;50.858;4.392;2023-07-13T07:19:48;18.60;99.90
43679;DHT22;29279;50.858;4.392;2023-07-13T07:22:14;18.60;99.90
43679;DHT22;29279;50.858;4.392;2023-07-13T07:24:39;18.70;99.90
43679;DHT22;29279;50.858;4.392;2023-07-13T07:27:05;18.70;99.90
43679;DHT22;29279;50.858;4.392;2023-07-13T07:29:31;18.70;99.90
43679;DHT22;29279;50.858;4.392;2023-07-13T07:31:59;18.80;99.90
43679;DHT22;29279;50.858;4.392;2023-07-13T07:34:25;18.70;99.90
43679;DHT22;29279;50.858;4.392;2023-07-13T07:36:50;18.80;99.90
43679;DHT22;29279;50.858;4.392;2023-07-13T07:40:02;19.00;99.90
43679;DHT22;29279;50.858;4.392;2023-07-13T07:42:32;19.10;99.90
43679;DHT22;29279;50.858;4.392;2023-07-13T07:48:12;19.10;99.90
43679;DHT22;29279;50.858;4.392;2023-07-13T07:50:38;19.00;99.90
43679;DHT22;29279;50.858;4.392;2023-07-13T07:53:05;18.90;99.90
43679;DHT22;29279;50.858;4.392;2023-07-13T07:55:34;18.90;99.90
43679;DHT22;29279;50.858;4.392;2023-07-13T07:58:00;19.00;99.90
43679;DHT22;29279;50.858;4.392;2023-07-13T08:00:26;19.10;99.90
43679;DHT22;29279;50.858;4.392;2023-07-13T08:02:53;19.20;99.90
43679;DHT22;29279;50.858;4.392;2023-07-13T08:05:19;19.30;99.90
43679;DHT22;29279;50.858;4.392;2023-07-13T08:07:44;19.20;99.90
43679;DHT22;29279;50.858;4.392;2023-07-13T08:10:10;19.20;99.90
43679;DHT22;29279;50.858;4.392;2023-07-13T08:12:37;19.30;99.90
43679;DHT22;29279;50.858;4.392;2023-07-13T08:21:56;20.00;99.90
43679;DHT22;29279;50.858;4.392;2023-07-13T08:25:00;20.00;99.90
43679;DHT22;29279;50.858;4.392;2023-07-13T08:27:29;20.00;99.90
43679;DHT22;29279;50.858;4.392;2023-07-13T08:30:02;20.00;99.90
43679;DHT22;29279;50.858;4.392;2023-07-13T08:36:20;20.20;99.90
43679;DHT22;29279;50.858;4.392;2023-07-13T08:39:14;20.30;99.90
43679;DHT22;29279;50.858;4.392;2023-07-13T08:41:39;20.30;99.90
43679;DHT22;29279;50.858;4.392;2023-07-13T08:44:14;20.30;99.90
43679;DHT22;29279;50.858;4.392;2023-07-13T08:46:45;20.30;99.90
43679;DHT22;29279;50.858;4.392;2023-07-13T08:49:15;20.30;99.90
43679;DHT22;29279;50.858;4.392;2023-07-13T08:51:45;20.30;99.90
43679;DHT22;29279;50.858;4.392;2023-07-13T08:54:29;20.50;99.90
43679;DHT22;29279;50.858;4.392;2023-07-13T08:56:57;20.60;99.90
43679;DHT22;29279;50.858;4.392;2023-07-13T08:59:26;20.60;99.90
43679;DHT22;29279;50.858;4.392;2023-07-13T09:04:58;20.90;99.90
43679;DHT22;29279;50.858;4.392;2023-07-13T09:10:16;21.10;99.90
43679;DHT22;29279;50.858;4.392;2023-07-13T09:15:42;21.20;99.90
43679;DHT22;29279;50.858;4.392;2023-07-13T09:18:35;21.40;99.90
43679;DHT22;29279;50.858;4.392;2023-07-13T09:21:14;21.50;99.90
43679;DHT22;29279;50.858;4.392;2023-07-13T09:23:41;21.60;99.90
43679;DHT22;29279;50.858;4.392;2023-07-13T09:26:18;21.60;99.90
43679;DHT22;29279;50.858;4.392;2023-07-13T09:28:48;21.80;99.90
43679;DHT22;29279;50.858;4.392;2023-07-13T09:31:33;21.90;99.90
43679;DHT22;29279;50.858;4.392;2023-07-13T09:34:02;22.00;99.90
43679;DHT22;29279;50.858;4.392;2023-07-13T09:36:30;22.10;99.90
43679;DHT22;29279;50.858;4.392;2023-07-13T09:42:18;22.50;99.90
43679;DHT22;29279;50.858;4.392;2023-07-13T09:47:27;22.30;99.90
43679;DHT22;29279;50.858;4.392;2023-07-13T09:50:03;22.10;99.90
43679;DHT22;29279;50.858;4.392;2023-07-13T09:55:33;22.00;99.90
43679;DHT22;29279;50.858;4.392;2023-07-13T09:58:24;22.20;99.90
43679;DHT22;29279;50.858;4.392;2023-07-13T10:01:04;22.60;99.90
43679;DHT22;29279;50.858;4.392;2023-07-13T10:03:34;22.70;99.90
43679;DHT22;29279;50.858;4.392;2023-07-13T10:06:16;22.80;99.90
43679;DHT22;29279;50.858;4.392;2023-07-13T10:08:44;22.60;99.90
43679;DHT22;29279;50.858;4.392;2023-07-13T10:11:14;22.60;99.90
43679;DHT22;29279;50.858;4.392;2023-07-13T10:13:45;22.60;99.90
43679;DHT22;29279;50.858;4.392;2023-07-13T10:16:14;22.80;99.90
43679;DHT22;29279;50.858;4.392;2023-07-13T10:21:13;23.20;99.90
43679;DHT22;29279;50.858;4.392;2023-07-13T10:23:41;23.30;99.90
43679;DHT22;29279;50.858;4.392;2023-07-13T10:26:15;23.30;99.90
43679;DHT22;29279;50.858;4.392;2023-07-13T10:28:42;23.40;99.90
43679;DHT22;29279;50.858;4.392;2023-07-13T10:31:12;23.30;99.90
43679;DHT22;29279;50.858;4.392;2023-07-13T10:33:39;23.40;99.90
43679;DHT22;29279;50.858;4.392;2023-07-13T10:36:27;23.50;99.90
43679;DHT22;29279;50.858;4.392;2023-07-13T10:38:55;23.40;99.90
43679;DHT22;29279;50.858;4.392;2023-07-13T10:41:24;23.30;99.90
43679;DHT22;29279;50.858;4.392;2023-07-13T10:43:53;23.20;99.90
43679;DHT22;29279;50.858;4.392;2023-07-13T10:46:25;22.90;99.90
43679;DHT22;29279;50.858;4.392;2023-07-13T10:48:54;22.50;99.90
43679;DHT22;29279;50.858;4.392;2023-07-13T10:51:21;22.40;99.90
43679;DHT22;29279;50.858;4.392;2023-07-13T10:54:10;22.20;99.90
43679;DHT22;29279;50.858;4.392;2023-07-13T10:56:34;22.00;99.90
43679;DHT22;29279;50.858;4.392;2023-07-13T10:59:24;22.10;99.90
43679;DHT22;29279;50.858;4.392;2023-07-13T11:02:15;22.40;99.90
43679;DHT22;29279;50.858;4.392;2023-07-13T11:04:45;23.20;99.90
43679;DHT22;29279;50.858;4.392;2023-07-13T11:07:21;23.70;99.90
43679;DHT22;29279;50.858;4.392;2023-07-13T11:09:52;24.00;99.60
43679;DHT22;29279;50.858;4.392;2023-07-13T11:22:51;24.70;98.20
43679;DHT22;29279;50.858;4.392;2023-07-13T11:25:21;25.10;97.20
43679;DHT22;29279;50.858;4.392;2023-07-13T11:30:50;24.90;97.00
43679;DHT22;29279;50.858;4.392;2023-07-13T11:36:14;25.70;96.50
43679;DHT22;29279;50.858;4.392;2023-07-13T11:39:05;25.30;96.40
43679;DHT22;29279;50.858;4.392;2023-07-13T11:41:44;24.40;97.00
43679;DHT22;29279;50.858;4.392;2023-07-13T11:44:12;23.60;98.00
43679;DHT22;29279;50.858;4.392;2023-07-13T11:46:38;23.20;98.80
43679;DHT22;29279;50.858;4.392;2023-07-13T11:49:06;22.90;99.20
43679;DHT22;29279;50.858;4.392;2023-07-13T11:51:35;22.60;99.50
43679;DHT22;29279;50.858;4.392;2023-07-13T11:54:05;22.10;99.90
43679;DHT22;29279;50.858;4.392;2023-07-13T11:56:32;22.00;99.90
43679;DHT22;29279;50.858;4.392;2023-07-13T11:59:07;22.00;99.90
43679;DHT22;29279;50.858;4.392;2023-07-13T12:01:44;22.00;99.90
43679;DHT22;29279;50.858;4.392;2023-07-13T12:07:17;21.90;99.90
43679;DHT22;29279;50.858;4.392;2023-07-13T12:09:43;21.80;99.90
43679;DHT22;29279;50.858;4.392;2023-07-13T12:12:18;21.70;99.90
43679;DHT22;29279;50.858;4.392;2023-07-13T12:14:44;21.80;99.90
43679;DHT22;29279;50.858;4.392;2023-07-13T12:17:20;21.80;99.90
43679;DHT22;29279;50.858;4.392;2023-07-13T12:19:47;21.90;99.90
43679;DHT22;29279;50.858;4.392;2023-07-13T12:22:15;22.00;99.90
43679;DHT22;29279;50.858;4.392;2023-07-13T12:24:43;22.20;99.90
43679;DHT22;29279;50.858;4.392;2023-07-13T12:27:27;22.30;99.90
43679;DHT22;29279;50.858;4.392;2023-07-13T12:30:05;22.40;99.90
43679;DHT22;29279;50.858;4.392;2023-07-13T12:32:31;22.00;99.90
43679;DHT22;29279;50.858;4.392;2023-07-13T12:35:17;21.30;99.90
43679;DHT22;29279;50.858;4.392;2023-07-13T12:37:46;21.00;99.90
43679;DHT22;29279;50.858;4.392;2023-07-13T12:40:20;20.70;99.90
43679;DHT22;29279;50.858;4.392;2023-07-13T12:42:48;20.30;99.90
43679;DHT22;29279;50.858;4.392;2023-07-13T12:45:26;20.10;99.90
43679;DHT22;29279;50.858;4.392;2023-07-13T12:48:12;20.10;99.90
43679;DHT22;29279;50.858;4.392;2023-07-13T12:50:49;20.10;99.90
43679;DHT22;29279;50.858;4.392;2023-07-13T12:53:23;20.00;99.90
43679;DHT22;29279;50.858;4.392;2023-07-13T12:55:56;19.80;99.90
43679;DHT22;29279;50.858;4.392;2023-07-13T12:58:37;19.70;99.90
43679;DHT22;29279;50.858;4.392;2023-07-13T13:01:04;19.70;99.90
43679;DHT22;29279;50.858;4.392;2023-07-13T13:03:45;19.60;99.90
43679;DHT22;29279;50.858;4.392;2023-07-13T13:08:46;19.50;99.90
43679;DHT22;29279;50.858;4.392;2023-07-13T13:11:12;19.70;99.90
43679;DHT22;29279;50.858;4.392;2023-07-13T13:13:41;20.10;99.90
43679;DHT22;29279;50.858;4.392;2023-07-13T13:16:15;20.70;99.90
43679;DHT22;29279;50.858;4.392;2023-07-13T13:18:41;21.40;99.90
43679;DHT22;29279;50.858;4.392;2023-07-13T13:21:09;21.80;99.90
43679;DHT22;29279;50.858;4.392;2023-07-13T13:23:35;22.00;99.90
43679;DHT22;29279;50.858;4.392;2023-07-13T13:26:01;22.00;99.90
43679;DHT22;29279;50.858;4.392;2023-07-13T13:28:27;22.10;99.90
43679;DHT22;29279;50.858;4.392;2023-07-13T13:30:53;22.30;99.90
43679;DHT22;29279;50.858;4.392;2023-07-13T13:33:20;22.70;99.90
43679;DHT22;29279;50.858;4.392;2023-07-13T13:35:47;23.00;99.90
43679;DHT22;29279;50.858;4.392;2023-07-13T13:38:31;23.30;99.90
43679;DHT22;29279;50.858;4.392;2023-07-13T13:40:57;23.60;99.90
43679;DHT22;29279;50.858;4.392;2023-07-13T13:43:25;24.00;99.90
43679;DHT22;29279;50.858;4.392;2023-07-13T13:45:57;25.30;99.90
43679;DHT22;29279;50.858;4.392;2023-07-13T13:48:32;26.50;99.40
43679;DHT22;29279;50.858;4.392;2023-07-13T13:51:00;27.30;97.90
43679;DHT22;29279;50.858;4.392;2023-07-13T13:53:26;27.50;96.50
43679;DHT22;29279;50.858;4.392;2023-07-13T13:55:52;26.80;96.60
43679;DHT22;29279;50.858;4.392;2023-07-13T13:58:21;26.00;96.40
43679;DHT22;29279;50.858;4.392;2023-07-13T14:00:48;25.30;97.80
43679;DHT22;29279;50.858;4.392;2023-07-13T14:03:17;24.90;97.50
43679;DHT22;29279;50.858;4.392;2023-07-13T14:05:44;24.90;98.30
43679;DHT22;29279;50.858;4.392;2023-07-13T14:08:15;25.30;97.70
43679;DHT22;29279;50.858;4.392;2023-07-13T14:10:42;25.70;97.20
43679;DHT22;29279;50.858;4.392;2023-07-13T14:13:28;25.40;96.80
43679;DHT22;29279;50.858;4.392;2023-07-13T14:15:54;25.90;96.70
43679;DHT22;29279;50.858;4.392;2023-07-13T14:18:20;26.20;96.40
43679;DHT22;29279;50.858;4.392;2023-07-13T14:20:47;26.50;95.90
43679;DHT22;29279;50.858;4.392;2023-07-13T14:23:14;26.90;95.10
43679;DHT22;29279;50.858;4.392;2023-07-13T14:25:50;26.80;95.30
43679;DHT22;29279;50.858;4.392;2023-07-13T14:28:24;26.20;95.50
43679;DHT22;29279;50.858;4.392;2023-07-13T14:30:54;25.80;96.00
43679;DHT22;29279;50.858;4.392;2023-07-13T14:33:20;24.90;96.50
43679;DHT22;29279;50.858;4.392;2023-07-13T14:35:46;24.10;97.50
43679;DHT22;29279;50.858;4.392;2023-07-13T14:38:15;23.60;97.80
43679;DHT22;29279;50.858;4.392;2023-07-13T14:40:41;23.40;97.90
43679;DHT22;29279;50.858;4.392;2023-07-13T14:43:10;23.20;97.90
43679;DHT22;29279;50.858;4.392;2023-07-13T14:45:42;23.10;98.00
43679;DHT22;29279;50.858;4.392;2023-07-13T14:48:22;23.60;96.40
43679;DHT22;29279;50.858;4.392;2023-07-13T14:50:57;24.00;96.20
43679;DHT22;29279;50.858;4.392;2023-07-13T14:53:25;24.30;95.80
43679;DHT22;29279;50.858;4.392;2023-07-13T14:55:50;24.50;95.80
43679;DHT22;29279;50.858;4.392;2023-07-13T14:58:16;24.80;95.50
43679;DHT22;29279;50.858;4.392;2023-07-13T15:00:42;25.00;96.30
43679;DHT22;29279;50.858;4.392;2023-07-13T15:03:18;25.10;95.70
43679;DHT22;29279;50.858;4.392;2023-07-13T15:05:46;25.40;96.00
43679;DHT22;29279;50.858;4.392;2023-07-13T15:08:12;25.70;95.50
43679;DHT22;29279;50.858;4.392;2023-07-13T15:10:38;25.50;95.30
43679;DHT22;29279;50.858;4.392;2023-07-13T15:13:19;25.30;95.20
43679;DHT22;29279;50.858;4.392;2023-07-13T15:15:50;24.90;95.40
43679;DHT22;29279;50.858;4.392;2023-07-13T15:18:19;24.70;94.80
43679;DHT22;29279;50.858;4.392;2023-07-13T15:20:47;24.70;94.90
43679;DHT22;29279;50.858;4.392;2023-07-13T15:23:15;24.80;94.80
43679;DHT22;29279;50.858;4.392;2023-07-13T15:25:42;24.90;94.60
43679;DHT22;29279;50.858;4.392;2023-07-13T15:28:09;24.90;94.50
43679;DHT22;29279;50.858;4.392;2023-07-13T15:33:12;25.10;94.30
43679;DHT22;29279;50.858;4.392;2023-07-13T15:35:39;25.10;93.90
43679;DHT22;29279;50.858;4.392;2023-07-13T15:38:23;24.90;94.20
43679;DHT22;29279;50.858;4.392;2023-07-13T15:40:50;24.90;94.30
43679;DHT22;29279;50.858;4.392;2023-07-13T15:43:18;24.90;94.40
43679;DHT22;29279;50.858;4.392;2023-07-13T15:45:44;25.00;94.50
43679;DHT22;29279;50.858;4.392;2023-07-13T15:48:22;25.00;94.10
43679;DHT22;29279;50.858;4.392;2023-07-13T15:50:49;24.80;94.50
43679;DHT22;29279;50.858;4.392;2023-07-13T15:53:22;24.60;95.10
43679;DHT22;29279;50.858;4.392;2023-07-13T15:55:48;24.50;94.90
43679;DHT22;29279;50.858;4.392;2023-07-13T15:58:15;24.60;95.30
43679;DHT22;29279;50.858;4.392;2023-07-13T16:00:41;24.30;94.40
43679;DHT22;29279;50.858;4.392;2023-07-13T16:03:07;24.20;94.40
43679;DHT22;29279;50.858;4.392;2023-07-13T16:05:34;24.20;94.70
43679;DHT22;29279;50.858;4.392;2023-07-13T16:08:00;24.30;94.40
43679;DHT22;29279;50.858;4.392;2023-07-13T16:10:38;24.40;94.20
43679;DHT22;29279;50.858;4.392;2023-07-13T16:13:15;24.60;94.10
43679;DHT22;29279;50.858;4.392;2023-07-13T16:15:42;24.90;93.00
43679;DHT22;29279;50.858;4.392;2023-07-13T16:18:10;25.10;92.60
43679;DHT22;29279;50.858;4.392;2023-07-13T16:20:38;25.10;92.10
43679;DHT22;29279;50.858;4.392;2023-07-13T16:23:04;25.00;91.70
43679;DHT22;29279;50.858;4.392;2023-07-13T16:25:30;25.00;91.90
43679;DHT22;29279;50.858;4.392;2023-07-13T16:27:57;25.30;91.40
43679;DHT22;29279;50.858;4.392;2023-07-13T16:30:26;25.40;91.60
43679;DHT22;29279;50.858;4.392;2023-07-13T16:32:55;25.70;91.40
43679;DHT22;29279;50.858;4.392;2023-07-13T16:35:25;25.50;90.50
43679;DHT22;29279;50.858;4.392;2023-07-13T16:37:53;25.20;90.90
43679;DHT22;29279;50.858;4.392;2023-07-13T16:42:48;24.80;91.20
43679;DHT22;29279;50.858;4.392;2023-07-13T16:45:14;24.90;91.30